Terminal Aerodrome Forecast
Issued by NWS

Home | Current Version | Previous Version | Text Only | Print | Product List | Glossary On
Versions: 1 2 3 4 5 6 7 8 9 10 11 12 13 14 15 16 17 18 19
000
FTUS43 KLSX 282320
TAFSUS
TAF
KSUS 282320Z 2900/2924 16007KT P6SM BKN150
     FM291200 17007KT P6SM VCSH SCT050 BKN150
     FM292100 17008KT P6SM VCTS SCT050CB BKN120=

USA.gov is the U.S. government's official web portal to all federal, state and local government web resources and services.